Time;durP1;ratioP1;P1;durP2;ratioP2;P2;SDS_P1;SDS_P2;PMS_P1;PMS_P2;Temp;Humidity;BMP_temperature;BMP_pressure;BME280_temperature;BME280_humidity;BME280_pressure;Samples;Min_cycle;Max_cycle;Signal;HPM_P1;HPM_P2
2022/12/03 00:01:31;;;;;;;41.53;20.50;;;4.50;99.90;;;;;;6249736;28;20552;-64
2022/12/03 00:04:35;;;;;;;34.77;21.13;;;4.50;99.90;;;;;;6249217;28;20475;-64
2022/12/03 00:07:38;;;;;;;31.70;20.47;;;4.50;99.90;;;;;;6249404;28;20491;-66
2022/12/03 00:10:41;;;;;;;36.30;21.60;;;4.50;99.90;;;;;;6249376;28;20512;-66
2022/12/03 00:13:45;;;;;;;35.23;21.37;;;4.50;99.90;;;;;;6251242;28;20481;-66
2022/12/03 00:16:48;;;;;;;36.40;21.43;;;4.50;99.90;;;;;;6250024;28;20472;-65
2022/12/03 00:19:53;;;;;;;35.63;20.23;;;4.60;99.90;;;;;;6249498;28;20479;-66
2022/12/03 00:22:56;;;;;;;40.30;20.33;;;4.60;99.90;;;;;;6257135;28;20779;-65
2022/12/03 00:25:59;;;;;;;36.63;21.00;;;4.50;99.90;;;;;;6274046;28;20884;-63
2022/12/03 00:29:02;;;;;;;35.13;20.20;;;4.50;99.90;;;;;;6273778;28;20484;-65
2022/12/03 00:32:05;;;;;;;39.10;22.20;;;4.50;99.90;;;;;;6274117;28;20474;-64
2022/12/03 00:35:10;;;;;;;38.33;21.60;;;4.50;99.90;;;;;;6273610;28;20520;-66
2022/12/03 00:38:14;;;;;;;36.30;20.27;;;4.50;99.90;;;;;;6273918;28;20459;-63
2022/12/03 00:41:17;;;;;;;41.23;20.03;;;4.50;99.90;;;;;;6273968;28;20516;-65
2022/12/03 00:44:20;;;;;;;35.33;20.93;;;4.40;99.90;;;;;;6273862;28;20488;-63
2022/12/03 00:47:23;;;;;;;40.03;22.47;;;4.40;99.90;;;;;;6273901;28;20482;-66
2022/12/03 00:50:28;;;;;;;40.53;19.80;;;4.40;99.90;;;;;;6274232;28;20470;-65
2022/12/03 00:53:31;;;;;;;42.80;22.13;;;4.40;99.90;;;;;;6274225;28;20515;-66
2022/12/03 00:56:34;;;;;;;34.73;20.63;;;4.40;99.90;;;;;;6261226;28;20620;-64
2022/12/03 00:59:37;;;;;;;37.53;19.63;;;4.40;99.90;;;;;;6249135;28;20478;-67
2022/12/03 01:02:40;;;;;;;33.93;20.37;;;4.40;99.90;;;;;;6249476;28;20478;-66
2022/12/03 01:05:45;;;;;;;41.47;20.37;;;4.30;99.90;;;;;;6249050;28;20483;-66
2022/12/03 01:08:48;;;;;;;38.30;20.20;;;4.30;99.90;;;;;;6248323;28;20967;-66
2022/12/03 01:11:51;;;;;;;32.13;17.70;;;4.40;99.90;;;;;;6248638;28;20470;-66
2022/12/03 01:14:54;;;;;;;35.00;18.03;;;4.50;99.90;;;;;;6248451;28;20533;-66
2022/12/03 01:17:58;;;;;;;37.17;20.13;;;4.40;99.90;;;;;;6249140;28;20528;-67
2022/12/03 01:21:02;;;;;;;35.03;18.93;;;4.50;99.90;;;;;;6249188;28;20594;-67
2022/12/03 01:24:06;;;;;;;28.10;17.13;;;4.40;99.90;;;;;;6262453;28;20494;-66
2022/12/03 01:27:09;;;;;;;32.77;18.70;;;4.50;99.90;;;;;;6252945;28;20804;-67
2022/12/03 01:30:13;;;;;;;34.57;19.27;;;4.50;99.90;;;;;;6254229;28;20928;-67
2022/12/03 01:33:16;;;;;;;38.50;19.30;;;4.50;99.90;;;;;;6253204;28;20479;-64
2022/12/03 01:36:20;;;;;;;40.27;21.80;;;4.60;99.90;;;;;;6253023;28;20932;-66
2022/12/03 01:39:23;;;;;;;36.20;19.27;;;4.60;99.90;;;;;;6253343;28;20490;-66
2022/12/03 01:42:29;;;;;;;29.87;17.57;;;4.70;99.90;;;;;;6253052;28;20479;-65
2022/12/03 01:45:32;;;;;;;31.43;17.90;;;4.60;99.90;;;;;;6253575;28;20499;-66
2022/12/03 01:48:37;;;;;;;27.50;17.33;;;4.60;99.90;;;;;;6252418;28;20467;-66
2022/12/03 01:51:42;;;;;;;27.37;16.60;;;4.70;99.90;;;;;;6253900;28;20816;-65
2022/12/03 01:54:47;;;;;;;30.30;17.60;;;4.60;99.90;;;;;;6252062;28;20620;-67
2022/12/03 01:57:53;;;;;;;32.57;17.57;;;4.60;99.90;;;;;;6252780;28;20475;-66
2022/12/03 02:00:57;;;;;;;26.50;16.23;;;4.50;99.90;;;;;;6252310;28;20541;-65
2022/12/03 02:04:01;;;;;;;31.77;16.67;;;4.50;99.90;;;;;;6252697;28;20471;-67
2022/12/03 02:07:23;;;;;;;30.90;17.87;;;4.40;99.90;;;;;;6251761;28;20561;-66
2022/12/03 02:10:31;;;;;;;27.47;16.77;;;4.50;99.90;;;;;;6253653;28;20476;-68
2022/12/03 02:13:35;;;;;;;28.67;17.70;;;4.50;99.90;;;;;;6251177;28;20471;-67
2022/12/03 02:16:41;;;;;;;31.07;16.73;;;4.50;99.90;;;;;;6236166;28;20471;-66
2022/12/03 02:19:44;;;;;;;34.17;20.67;;;4.40;99.90;;;;;;6254170;28;20459;-65
2022/12/03 02:22:56;;;;;;;30.93;18.37;;;4.40;99.90;;;;;;6281008;28;20478;-66
2022/12/03 02:26:00;;;;;;;32.93;19.30;;;4.40;99.90;;;;;;6255996;28;20534;-67
2022/12/03 02:29:04;;;;;;;30.70;17.70;;;4.40;99.90;;;;;;6245803;28;20483;-68
2022/12/03 02:32:07;;;;;;;34.00;18.80;;;4.50;99.90;;;;;;6241002;28;20472;-67
2022/12/03 02:35:14;;;;;;;30.37;18.00;;;4.50;99.90;;;;;;6237757;28;20490;-67
2022/12/03 02:38:20;;;;;;;33.43;18.33;;;4.40;99.90;;;;;;6242456;28;20883;-67
2022/12/03 02:44:45;;;;;;;38.93;19.90;;;4.40;99.90;;;;;;6247337;28;20476;-68
2022/12/03 02:47:51;;;;;;;36.37;20.20;;;4.30;99.90;;;;;;6237461;28;20479;-68
2022/12/03 02:50:57;;;;;;;37.20;20.50;;;4.30;99.90;;;;;;6236726;28;20533;-68
2022/12/03 02:54:01;;;;;;;35.83;17.47;;;4.30;99.90;;;;;;6236268;28;20479;-69
2022/12/03 02:57:06;;;;;;;37.73;19.63;;;4.40;99.90;;;;;;6250549;28;20475;-68
2022/12/03 03:00:10;;;;;;;34.13;19.00;;;4.50;99.90;;;;;;6250698;28;20967;-68
2022/12/03 03:03:14;;;;;;;36.93;19.87;;;4.50;99.90;;;;;;6247813;28;20478;-68
2022/12/03 03:06:19;;;;;;;32.43;18.83;;;4.50;99.90;;;;;;6241634;28;20789;-68
2022/12/03 03:09:22;;;;;;;32.60;19.30;;;4.50;99.90;;;;;;6237921;28;20966;-67
2022/12/03 03:12:26;;;;;;;29.53;17.30;;;4.50;99.90;;;;;;6238641;28;20949;-68
2022/12/03 03:15:30;;;;;;;44.43;22.40;;;4.60;99.90;;;;;;6239310;28;20506;-68
2022/12/03 03:18:34;;;;;;;36.90;19.77;;;4.50;99.90;;;;;;6247178;28;20476;-68
2022/12/03 03:21:37;;;;;;;39.67;20.93;;;4.50;99.90;;;;;;6250392;28;20532;-68
2022/12/03 03:24:40;;;;;;;38.40;19.83;;;4.50;99.90;;;;;;6272531;28;20501;-68
2022/12/03 03:27:45;;;;;;;31.90;19.00;;;4.50;99.90;;;;;;6274726;28;20811;-68
2022/12/03 03:30:48;;;;;;;34.63;19.90;;;4.50;99.90;;;;;;6274837;28;20547;-68
2022/12/03 03:33:52;;;;;;;35.50;19.67;;;4.50;99.90;;;;;;6274943;28;20477;-65
2022/12/03 03:36:55;;;;;;;38.87;20.47;;;4.40;99.90;;;;;;6274683;28;20851;-64
2022/12/03 03:39:58;;;;;;;32.60;18.97;;;4.50;99.90;;;;;;6274317;28;20486;-64
2022/12/03 03:43:03;;;;;;;41.73;25.17;;;4.50;99.90;;;;;;6274610;28;20478;-67
2022/12/03 03:46:07;;;;;;;45.20;21.30;;;4.60;99.90;;;;;;6274545;28;20527;-67
2022/12/03 03:49:12;;;;;;;39.37;20.93;;;4.50;99.90;;;;;;6274588;28;20504;-67
2022/12/03 03:52:15;;;;;;;41.43;20.87;;;4.50;99.90;;;;;;6274353;28;20855;-67
2022/12/03 03:55:19;;;;;;;37.60;19.70;;;4.60;99.90;;;;;;6272803;28;20544;-67
2022/12/03 03:58:23;;;;;;;38.53;20.00;;;4.60;99.90;;;;;;6249320;28;20471;-67
2022/12/03 04:01:27;;;;;;;36.23;20.40;;;4.70;99.90;;;;;;6249695;28;20493;-67
2022/12/03 04:04:35;;;;;;;33.03;21.00;;;4.70;99.90;;;;;;6249167;28;20467;-67
2022/12/03 04:07:39;;;;;;;32.77;18.67;;;4.70;99.90;;;;;;6249435;28;20494;-67
2022/12/03 04:14:04;;;;;;;38.17;21.23;;;4.70;99.90;;;;;;6225009;28;20487;-68
2022/12/03 04:17:07;;;;;;;27.87;19.17;;;4.70;99.90;;;;;;6224806;28;20556;-68
2022/12/03 04:20:11;;;;;;;36.53;20.00;;;4.60;99.90;;;;;;6224584;28;20792;-67
2022/12/03 04:23:13;;;;;;;43.37;22.17;;;4.50;99.90;;;;;;6245359;28;20455;-68
2022/12/03 04:29:38;;;;;;;36.03;19.57;;;4.50;99.90;;;;;;6276192;28;20487;-68
2022/12/03 04:36:02;;;;;;;32.67;19.37;;;4.40;99.90;;;;;;6273767;28;20478;-64
2022/12/03 04:39:06;;;;;;;39.80;20.27;;;4.50;99.90;;;;;;6273424;28;21019;-66
2022/12/03 04:42:09;;;;;;;38.73;20.87;;;4.50;99.90;;;;;;6273907;28;20470;-64
2022/12/03 04:45:13;;;;;;;40.00;20.80;;;4.50;99.90;;;;;;6273485;28;20474;-64
2022/12/03 04:48:17;;;;;;;38.90;21.23;;;4.50;99.90;;;;;;6273670;28;20478;-64
2022/12/03 04:51:20;;;;;;;39.03;22.33;;;4.50;99.90;;;;;;6274333;28;20977;-68
2022/12/03 04:54:23;;;;;;;48.27;22.63;;;4.40;99.90;;;;;;6274707;28;20931;-66
2022/12/03 04:57:26;;;;;;;42.83;21.23;;;4.30;99.90;;;;;;6255184;28;20479;-62
2022/12/03 05:00:31;;;;;;;39.10;21.50;;;4.30;99.90;;;;;;6251209;28;20486;-62
2022/12/03 05:03:34;;;;;;;40.30;23.50;;;4.30;99.90;;;;;;6245093;28;20789;-62
2022/12/03 05:06:37;;;;;;;41.80;21.43;;;4.40;99.90;;;;;;6254581;28;20481;-62
2022/12/03 05:09:40;;;;;;;38.60;19.77;;;4.40;99.90;;;;;;6253591;28;20475;-62
2022/12/03 05:12:43;;;;;;;33.47;20.90;;;4.40;99.90;;;;;;6253172;28;20475;-62
2022/12/03 05:15:48;;;;;;;43.00;21.10;;;4.40;99.90;;;;;;6253119;28;21056;-62
2022/12/03 05:18:51;;;;;;;37.90;21.83;;;4.40;99.90;;;;;;6253222;28;20459;-62
2022/12/03 05:21:54;;;;;;;43.57;22.27;;;4.40;99.90;;;;;;6252996;28;20467;-62
2022/12/03 05:24:57;;;;;;;41.33;21.87;;;4.50;99.90;;;;;;6277811;28;20477;-62
2022/12/03 05:28:00;;;;;;;40.93;20.10;;;4.50;99.90;;;;;;6277773;28;20474;-64
2022/12/03 05:31:05;;;;;;;39.27;19.70;;;4.60;99.90;;;;;;6277215;28;20543;-63
2022/12/03 05:34:08;;;;;;;40.67;24.37;;;4.60;99.90;;;;;;6277595;28;20869;-64
2022/12/03 05:37:11;;;;;;;39.93;22.77;;;4.60;99.90;;;;;;6272665;28;20536;-62
2022/12/03 05:40:15;;;;;;;35.27;20.20;;;4.60;99.90;;;;;;6251300;28;20790;-62
2022/12/03 05:43:18;;;;;;;37.70;20.50;;;4.60;99.90;;;;;;6250879;28;20551;-62
2022/12/03 05:46:22;;;;;;;37.90;20.80;;;4.60;99.90;;;;;;6252004;28;20537;-62
2022/12/03 05:49:25;;;;;;;40.37;23.40;;;4.70;99.90;;;;;;6250705;28;20613;-62
2022/12/03 05:52:29;;;;;;;43.23;22.07;;;4.60;99.90;;;;;;6250564;28;20943;-62
2022/12/03 05:55:32;;;;;;;40.17;21.10;;;4.60;99.90;;;;;;6250271;28;20598;-61
2022/12/03 05:58:36;;;;;;;42.83;22.00;;;4.60;99.90;;;;;;6252013;28;20497;-61
2022/12/03 06:01:40;;;;;;;40.67;20.57;;;4.60;99.90;;;;;;6252318;28;20475;-62
2022/12/03 06:04:43;;;;;;;41.17;23.07;;;4.60;99.90;;;;;;6252303;28;20471;-61
2022/12/03 06:07:47;;;;;;;44.87;22.07;;;4.60;99.90;;;;;;6252161;28;20474;-61
2022/12/03 06:10:50;;;;;;;42.80;27.57;;;4.60;99.90;;;;;;6251820;28;20475;-62
2022/12/03 06:13:53;;;;;;;51.97;31.97;;;4.50;99.90;;;;;;6252390;28;20849;-61
2022/12/03 06:16:58;;;;;;;53.37;28.37;;;4.50;99.90;;;;;;6252054;28;20834;-61
2022/12/03 06:20:01;;;;;;;47.17;25.50;;;4.50;99.90;;;;;;6251957;28;20467;-62
2022/12/03 06:23:04;;;;;;;48.97;26.50;;;4.50;99.90;;;;;;6261036;28;20842;-62
2022/12/03 06:26:07;;;;;;;34.10;21.30;;;4.40;99.90;;;;;;6276524;28;20555;-62
2022/12/03 06:29:11;;;;;;;45.97;23.73;;;4.50;99.90;;;;;;6275204;28;20482;-62
2022/12/03 06:32:15;;;;;;;43.33;24.73;;;4.50;99.90;;;;;;6275847;28;20482;-62
2022/12/03 06:35:18;;;;;;;51.70;24.50;;;4.60;99.90;;;;;;6280462;28;20474;-62
2022/12/03 06:38:22;;;;;;;45.67;26.10;;;4.60;99.90;;;;;;6281110;28;20446;-62
2022/12/03 06:41:25;;;;;;;44.30;27.27;;;4.70;99.90;;;;;;6278121;28;20478;-62
2022/12/03 06:44:28;;;;;;;35.80;19.37;;;4.70;99.90;;;;;;6275661;28;20446;-62
2022/12/03 06:47:32;;;;;;;36.53;21.43;;;4.70;99.90;;;;;;6275893;28;20963;-62
2022/12/03 06:50:35;;;;;;;39.73;22.17;;;4.70;99.90;;;;;;6275840;28;20464;-63
2022/12/03 06:53:39;;;;;;;39.43;21.10;;;4.60;99.90;;;;;;6275734;28;20462;-62
2022/12/03 06:56:42;;;;;;;37.47;22.17;;;4.70;99.90;;;;;;6262966;28;20566;-62
2022/12/03 06:59:47;;;;;;;37.17;22.23;;;4.70;99.90;;;;;;6250968;28;20483;-62
2022/12/03 07:02:52;;;;;;;39.30;21.20;;;4.50;99.90;;;;;;6250900;28;20479;-62
2022/12/03 07:05:55;;;;;;;40.43;21.93;;;4.50;99.90;;;;;;6250908;28;20475;-62
2022/12/03 07:08:58;;;;;;;33.93;19.50;;;4.60;99.90;;;;;;6250581;28;20474;-62
2022/12/03 07:12:01;;;;;;;35.33;21.03;;;4.60;99.90;;;;;;6250657;28;20474;-62
2022/12/03 07:15:05;;;;;;;36.00;18.20;;;4.70;99.90;;;;;;6250419;28;20495;-62
2022/12/03 07:18:10;;;;;;;37.37;20.80;;;4.70;99.90;;;;;;6250205;28;20963;-62
2022/12/03 07:21:13;;;;;;;36.90;19.43;;;4.70;99.90;;;;;;6250068;28;20535;-62
2022/12/03 07:24:16;;;;;;;36.90;19.60;;;4.80;99.90;;;;;;6268943;28;20973;-64
2022/12/03 07:27:19;;;;;;;38.70;19.67;;;4.80;99.90;;;;;;6274819;28;20488;-65
2022/12/03 07:30:24;;;;;;;46.17;19.63;;;4.80;99.90;;;;;;6275229;28;20478;-64
2022/12/03 07:33:29;;;;;;;32.60;20.03;;;4.80;99.90;;;;;;6274809;28;20477;-64
2022/12/03 07:36:32;;;;;;;30.23;18.30;;;4.80;99.90;;;;;;6274927;28;20936;-65
2022/12/03 07:39:35;;;;;;;31.60;17.37;;;4.80;99.90;;;;;;6274346;28;20479;-62
2022/12/03 07:42:38;;;;;;;36.43;20.60;;;4.80;99.90;;;;;;6274697;28;20481;-62
2022/12/03 07:45:41;;;;;;;38.00;20.30;;;4.90;99.90;;;;;;6274968;28;20528;-64
2022/12/03 07:48:46;;;;;;;32.53;18.80;;;4.80;99.90;;;;;;6274055;28;20496;-68
2022/12/03 07:51:53;;;;;;;37.40;20.20;;;4.90;99.90;;;;;;6274613;28;21229;-65
2022/12/03 07:54:56;;;;;;;38.37;20.37;;;4.90;99.90;;;;;;6274554;28;20466;-66
2022/12/03 07:57:59;;;;;;;30.30;17.57;;;4.90;99.90;;;;;;6250997;28;20536;-67
2022/12/03 08:01:02;;;;;;;32.03;19.33;;;5.00;99.90;;;;;;6249307;28;20479;-64
2022/12/03 08:04:07;;;;;;;33.03;18.63;;;5.00;99.90;;;;;;6249599;28;20474;-64
2022/12/03 08:07:10;;;;;;;29.10;18.13;;;5.10;99.90;;;;;;6249469;28;21269;-68
2022/12/03 08:10:13;;;;;;;33.77;18.83;;;5.10;99.90;;;;;;6249242;28;20486;-68
2022/12/03 08:13:18;;;;;;;29.20;16.83;;;5.20;99.90;;;;;;6249316;28;20787;-69
2022/12/03 08:16:22;;;;;;;31.73;18.40;;;5.20;99.90;;;;;;6240886;28;20479;-66
2022/12/03 08:19:27;;;;;;;30.23;16.07;;;5.20;99.90;;;;;;6249360;28;20491;-66
2022/12/03 08:22:30;;;;;;;31.30;17.53;;;5.10;99.90;;;;;;6253547;28;20482;-61
2022/12/03 08:25:34;;;;;;;34.17;20.67;;;5.10;99.90;;;;;;6274251;28;20481;-61
2022/12/03 08:28:37;;;;;;;34.20;19.40;;;5.10;99.90;;;;;;6273714;28;20481;-61
2022/12/03 08:31:40;;;;;;;34.57;19.93;;;5.20;99.90;;;;;;6274058;28;20481;-61
2022/12/03 08:34:45;;;;;;;33.93;20.17;;;5.30;99.90;;;;;;6274350;28;20545;-61
2022/12/03 08:37:55;;;;;;;33.60;21.67;;;5.20;99.90;;;;;;6279358;28;20496;-61
2022/12/03 08:40:58;;;;;;;34.80;20.80;;;5.20;99.90;;;;;;6278738;28;20501;-61
2022/12/03 08:44:11;;;;;;;36.00;19.67;;;5.30;99.90;;;;;;6279173;28;20535;-61
2022/12/03 08:47:19;;;;;;;32.77;19.50;;;5.30;99.90;;;;;;6281863;28;20543;-67
2022/12/03 08:50:28;;;;;;;33.00;18.40;;;5.30;99.90;;;;;;6280645;28;20926;-68
2022/12/03 08:53:37;;;;;;;30.80;18.37;;;5.30;99.90;;;;;;6279727;28;20438;-67
2022/12/03 08:56:42;;;;;;;32.07;18.70;;;5.30;99.90;;;;;;6266099;28;20471;-67
2022/12/03 08:59:46;;;;;;;30.90;19.00;;;5.40;99.90;;;;;;6254486;28;20483;-67
2022/12/03 09:02:53;;;;;;;28.23;17.93;;;5.40;99.90;;;;;;6254292;28;20470;-68
2022/12/03 09:05:57;;;;;;;35.73;17.40;;;5.40;99.90;;;;;;6253978;28;20471;-67
2022/12/03 09:09:00;;;;;;;34.10;17.53;;;5.50;99.90;;;;;;6253706;28;20471;-67
2022/12/03 09:12:08;;;;;;;26.77;17.30;;;5.50;99.90;;;;;;6253789;28;20564;-67
2022/12/03 09:15:12;;;;;;;31.53;17.70;;;5.50;99.90;;;;;;6254187;28;20475;-67
2022/12/03 09:18:15;;;;;;;30.33;17.00;;;5.60;99.90;;;;;;6249240;28;20479;-67
2022/12/03 09:21:19;;;;;;;24.47;17.13;;;5.70;99.90;;;;;;6253812;28;20474;-67
2022/12/03 09:24:23;;;;;;;35.27;19.23;;;5.70;99.90;;;;;;6273398;28;20470;-67
2022/12/03 09:27:26;;;;;;;34.30;18.60;;;5.80;99.90;;;;;;6277988;28;20470;-67
2022/12/03 09:30:29;;;;;;;26.40;17.77;;;5.80;99.90;;;;;;6277813;28;20474;-67
2022/12/03 09:33:32;;;;;;;29.03;17.83;;;5.80;99.90;;;;;;6277783;28;20818;-67
2022/12/03 09:36:37;;;;;;;27.53;18.00;;;5.80;99.90;;;;;;6278232;28;20478;-68
2022/12/03 09:39:40;;;;;;;33.30;16.87;;;5.90;99.90;;;;;;6277135;28;20989;-63
2022/12/03 09:42:43;;;;;;;26.77;17.83;;;5.90;99.90;;;;;;6277853;28;20470;-63
2022/12/03 09:45:47;;;;;;;28.83;18.73;;;5.90;99.90;;;;;;6277469;28;20466;-61
2022/12/03 09:48:50;;;;;;;26.77;17.23;;;5.90;99.90;;;;;;6277784;28;20466;-61
2022/12/03 09:51:56;;;;;;;29.50;19.10;;;5.90;99.90;;;;;;6277156;28;20466;-64
2022/12/03 09:55:00;;;;;;;28.40;17.57;;;5.90;99.90;;;;;;6277308;28;20962;-63
2022/12/03 09:58:11;;;;;;;26.27;16.73;;;5.90;99.90;;;;;;6252476;28;20475;-63
2022/12/03 10:01:15;;;;;;;34.87;19.30;;;5.90;99.90;;;;;;6252558;28;20972;-63
2022/12/03 10:04:19;;;;;;;28.60;17.10;;;5.90;99.90;;;;;;6252383;28;20475;-63
2022/12/03 10:07:25;;;;;;;30.50;17.57;;;5.80;99.90;;;;;;6252307;28;20471;-63
2022/12/03 10:10:28;;;;;;;28.17;17.60;;;5.80;99.90;;;;;;6251945;28;21227;-63
2022/12/03 10:13:33;;;;;;;32.97;18.33;;;5.70;99.90;;;;;;6252042;28;20541;-63
2022/12/03 10:16:38;;;;;;;34.30;18.73;;;5.60;99.90;;;;;;6251999;28;21001;-63
2022/12/03 10:19:43;;;;;;;27.07;16.67;;;5.50;99.90;;;;;;6252353;28;20582;-63
2022/12/03 10:22:48;;;;;;;30.43;16.83;;;5.50;99.90;;;;;;6247850;28;20479;-64
2022/12/03 10:25:53;;;;;;;30.80;17.77;;;5.40;99.90;;;;;;6253114;28;20822;-64
2022/12/03 10:28:56;;;;;;;27.30;15.80;;;5.50;99.90;;;;;;6251821;28;20478;-64
2022/12/03 10:32:01;;;;;;;31.93;17.47;;;5.50;99.90;;;;;;6252580;28;20501;-62
2022/12/03 10:35:11;;;;;;;30.37;17.43;;;5.60;99.90;;;;;;6252069;28;20467;-65
2022/12/03 10:38:22;;;;;;;30.37;19.20;;;5.60;99.90;;;;;;6252063;28;20491;-65
2022/12/03 10:41:27;;;;;;;32.37;19.80;;;5.70;99.90;;;;;;6250946;28;20475;-65
2022/12/03 10:44:30;;;;;;;27.63;17.50;;;5.80;99.90;;;;;;6251527;28;20517;-66
2022/12/03 10:47:33;;;;;;;31.63;17.50;;;5.70;99.90;;;;;;6251820;28;20443;-66
2022/12/03 10:50:37;;;;;;;35.03;18.50;;;5.50;99.90;;;;;;6251392;28;20488;-66
2022/12/03 10:53:42;;;;;;;32.70;18.87;;;5.50;99.90;;;;;;6251687;28;20459;-66
2022/12/03 10:56:47;;;;;;;33.20;20.07;;;5.50;99.90;;;;;;6251704;28;20490;-65
2022/12/03 10:59:50;;;;;;;39.97;22.17;;;5.40;99.90;;;;;;6251526;28;20494;-66
2022/12/03 11:02:53;;;;;;;36.30;20.80;;;5.40;99.90;;;;;;6251490;28;20470;-66
2022/12/03 11:06:01;;;;;;;32.97;19.23;;;5.50;99.90;;;;;;6241943;28;20534;-65
2022/12/03 11:09:16;;;;;;;33.47;18.50;;;5.50;99.90;;;;;;6247820;28;20600;-66
2022/12/03 11:12:22;;;;;;;38.50;19.27;;;5.50;99.90;;;;;;6251281;28;20483;-65
2022/12/03 11:15:42;;;;;;;32.70;20.07;;;5.50;99.90;;;;;;6251027;28;20491;-65
2022/12/03 11:18:59;;;;;;;37.77;20.43;;;5.50;99.90;;;;;;6251193;28;20550;-64
2022/12/03 11:22:40;;;;;;;33.20;17.77;;;5.60;99.90;;;;;;6251500;28;20839;-64
2022/12/03 11:25:50;;;;;;;31.23;18.67;;;5.50;99.90;;;;;;6225988;28;20550;-64
2022/12/03 11:28:54;;;;;;;27.10;16.30;;;5.50;99.90;;;;;;6292659;28;20501;-64
2022/12/03 11:31:57;;;;;;;28.00;18.13;;;5.50;99.90;;;;;;6273415;28;20483;-64
2022/12/03 11:35:00;;;;;;;29.73;18.00;;;5.60;99.90;;;;;;6251431;28;20478;-64
2022/12/03 11:38:46;;;;;;;29.57;18.23;;;5.60;99.90;;;;;;6250373;28;20471;-64
2022/12/03 11:42:37;;;;;;;32.73;17.80;;;5.60;99.90;;;;;;6232989;28;20927;-65
2022/12/03 11:45:40;;;;;;;32.63;17.77;;;5.70;99.90;;;;;;6250150;28;20900;-65
2022/12/03 11:48:59;;;;;;;31.83;17.00;;;5.70;99.90;;;;;;6227500;28;20983;-65
2022/12/03 11:52:20;;;;;;;34.60;18.23;;;5.70;99.90;;;;;;6250152;28;20470;-65
2022/12/03 11:55:29;;;;;;;25.60;16.53;;;5.70;99.90;;;;;;6250078;28;20479;-65
2022/12/03 11:58:34;;;;;;;31.07;16.30;;;5.80;99.90;;;;;;6250186;28;20479;-65
2022/12/03 12:01:39;;;;;;;27.30;18.07;;;5.80;99.90;;;;;;6250327;28;20467;-65
2022/12/03 12:04:46;;;;;;;30.97;18.20;;;5.80;99.90;;;;;;6250306;28;20475;-64
2022/12/03 12:07:50;;;;;;;26.07;16.33;;;5.80;99.90;;;;;;6250193;28;20470;-64
2022/12/03 12:10:53;;;;;;;25.33;15.57;;;5.80;99.90;;;;;;6249714;28;20866;-65
2022/12/03 12:13:59;;;;;;;24.50;16.23;;;5.80;99.90;;;;;;6249832;28;20479;-64
2022/12/03 12:17:03;;;;;;;27.17;16.00;;;5.80;99.90;;;;;;6249812;28;21344;-63
2022/12/03 12:20:25;;;;;;;27.77;18.17;;;5.90;99.90;;;;;;6249361;28;20545;-63
2022/12/03 12:23:29;;;;;;;23.27;15.73;;;5.90;99.90;;;;;;6261627;28;20727;-63
2022/12/03 12:26:32;;;;;;;25.90;15.90;;;5.90;99.90;;;;;;6274204;28;20461;-63
2022/12/03 12:29:38;;;;;;;23.10;16.40;;;6.00;99.90;;;;;;6265586;28;20462;-63
2022/12/03 12:32:46;;;;;;;26.13;15.67;;;5.90;99.90;;;;;;6274000;28;20473;-65
2022/12/03 12:35:49;;;;;;;28.63;17.93;;;6.00;99.90;;;;;;6274561;28;20834;-64
2022/12/03 12:38:52;;;;;;;29.90;16.80;;;6.00;99.90;;;;;;6273789;28;20466;-66
2022/12/03 12:41:55;;;;;;;26.03;16.40;;;6.00;99.90;;;;;;6274186;28;20928;-67
2022/12/03 12:45:09;;;;;;;26.50;16.37;;;6.00;99.90;;;;;;6273999;28;20470;-66
2022/12/03 12:48:19;;;;;;;27.87;17.90;;;6.00;99.90;;;;;;6274400;28;20470;-65
2022/12/03 12:51:23;;;;;;;28.60;15.67;;;6.00;99.90;;;;;;6265374;28;20479;-66
2022/12/03 12:54:26;;;;;;;23.20;15.70;;;6.00;99.90;;;;;;6249728;28;20474;-66
2022/12/03 12:57:30;;;;;;;27.23;17.80;;;5.90;99.90;;;;;;6268790;28;20482;-65
2022/12/03 13:00:34;;;;;;;26.10;17.10;;;5.90;99.90;;;;;;6273948;28;20490;-65
2022/12/03 13:03:39;;;;;;;28.40;17.10;;;5.90;99.90;;;;;;6274466;28;20547;-68
2022/12/03 13:06:42;;;;;;;25.57;16.70;;;5.80;99.90;;;;;;6250856;28;21090;-67
2022/12/03 13:09:47;;;;;;;33.03;19.60;;;5.80;99.90;;;;;;6249280;28;20506;-66
2022/12/03 13:12:50;;;;;;;26.93;19.77;;;5.80;99.90;;;;;;6248877;28;20471;-66
2022/12/03 13:16:01;;;;;;;26.50;18.23;;;5.90;99.90;;;;;;6249229;28;20467;-66
2022/12/03 13:19:19;;;;;;;25.43;17.80;;;6.00;99.90;;;;;;6249122;28;20474;-66
2022/12/03 13:22:24;;;;;;;23.80;16.37;;;6.00;99.90;;;;;;6255256;28;20470;-66
2022/12/03 13:25:37;;;;;;;25.20;17.77;;;5.90;99.90;;;;;;6278325;28;20683;-65
2022/12/03 13:29:06;;;;;;;26.53;16.70;;;5.90;99.90;;;;;;6278456;28;20857;-65
2022/12/03 13:32:13;;;;;;;25.10;16.80;;;5.90;99.90;;;;;;6265717;28;20532;-65
2022/12/03 13:35:26;;;;;;;26.17;17.73;;;5.90;99.90;;;;;;6246641;28;20486;-66
2022/12/03 13:38:30;;;;;;;26.47;17.10;;;5.90;99.90;;;;;;6253348;28;20766;-65
2022/12/03 13:44:56;;;;;;;24.93;17.13;;;5.90;99.90;;;;;;6253116;28;20471;-63
2022/12/03 13:48:02;;;;;;;28.03;19.20;;;6.00;99.90;;;;;;6253187;28;20466;-67
2022/12/03 13:51:19;;;;;;;27.07;19.63;;;5.90;99.90;;;;;;6252666;28;20475;-64
2022/12/03 13:54:26;;;;;;;29.03;18.90;;;6.10;99.90;;;;;;6253067;28;20597;-64
2022/12/03 13:57:29;;;;;;;23.50;15.60;;;6.10;99.90;;;;;;6253037;28;20471;-63
2022/12/03 14:00:32;;;;;;;28.23;17.27;;;6.10;99.90;;;;;;6252962;28;20986;-63
2022/12/03 14:03:37;;;;;;;24.50;16.60;;;6.10;99.90;;;;;;6252959;28;20478;-63
2022/12/03 14:06:40;;;;;;;24.90;14.87;;;6.20;99.90;;;;;;6253366;28;20971;-63
2022/12/03 14:09:43;;;;;;;26.40;17.97;;;6.20;99.90;;;;;;6253109;28;20475;-63
2022/12/03 14:12:46;;;;;;;28.83;17.53;;;6.20;99.90;;;;;;6252675;28;20551;-66
2022/12/03 14:15:49;;;;;;;27.93;17.20;;;6.20;99.90;;;;;;6252818;28;20475;-64
2022/12/03 14:18:54;;;;;;;26.47;17.80;;;6.10;99.90;;;;;;6252104;28;20479;-64
2022/12/03 14:21:57;;;;;;;24.67;16.87;;;6.10;99.90;;;;;;6252935;28;20475;-64
2022/12/03 14:25:00;;;;;;;25.53;17.63;;;6.10;99.90;;;;;;6228071;28;20488;-64
2022/12/03 14:28:07;;;;;;;32.27;20.90;;;6.10;99.90;;;;;;6227370;28;20515;-60
2022/12/03 14:31:10;;;;;;;26.77;19.37;;;6.10;99.90;;;;;;6227482;28;20534;-61
2022/12/03 14:34:15;;;;;;;24.33;18.57;;;6.10;99.90;;;;;;6226342;28;20468;-60
2022/12/03 14:37:18;;;;;;;30.67;20.10;;;6.10;99.90;;;;;;6218878;28;20919;-60
2022/12/03 14:40:22;;;;;;;35.03;21.13;;;6.10;99.90;;;;;;6248758;28;20526;-61
2022/12/03 14:43:25;;;;;;;27.53;17.33;;;6.00;99.90;;;;;;6251052;28;20975;-61
2022/12/03 14:46:28;;;;;;;27.83;18.00;;;6.00;99.90;;;;;;6250917;28;21081;-61
2022/12/03 14:49:33;;;;;;;24.50;16.10;;;5.90;99.90;;;;;;6251342;28;20819;-62
2022/12/03 14:52:37;;;;;;;27.30;16.53;;;5.80;99.90;;;;;;6251652;28;20487;-61
2022/12/03 14:55:40;;;;;;;23.27;16.60;;;5.80;99.90;;;;;;6251373;28;20959;-61
2022/12/03 14:58:43;;;;;;;23.57;16.23;;;5.80;99.90;;;;;;6251268;28;20975;-62
2022/12/03 15:01:46;;;;;;;26.17;16.57;;;5.80;99.90;;;;;;6251668;28;20467;-62
2022/12/03 15:04:51;;;;;;;26.10;17.90;;;5.70;99.90;;;;;;6250654;28;20483;-62
2022/12/03 15:07:54;;;;;;;25.30;16.60;;;5.80;99.90;;;;;;6251441;28;20470;-61
2022/12/03 15:10:57;;;;;;;28.20;17.97;;;5.70;99.90;;;;;;6250544;28;20795;-61
2022/12/03 15:14:01;;;;;;;24.83;16.20;;;5.70;99.90;;;;;;6240410;28;20479;-61
2022/12/03 15:17:04;;;;;;;27.17;19.20;;;5.70;99.90;;;;;;6238943;28;20472;-61
2022/12/03 15:20:10;;;;;;;26.97;18.40;;;5.70;99.90;;;;;;6238247;28;21029;-61
2022/12/03 15:23:14;;;;;;;26.00;17.80;;;5.70;99.90;;;;;;6250295;28;20474;-60
2022/12/03 15:26:17;;;;;;;24.53;17.20;;;5.70;99.90;;;;;;6250941;28;20471;-61
2022/12/03 15:29:21;;;;;;;26.00;16.67;;;5.60;99.90;;;;;;6251816;28;20451;-62
2022/12/03 15:32:24;;;;;;;28.83;16.93;;;5.60;99.90;;;;;;6250411;28;20479;-61
2022/12/03 15:35:29;;;;;;;24.00;15.50;;;5.60;99.90;;;;;;6249938;28;20509;-61
2022/12/03 15:38:33;;;;;;;21.43;14.50;;;5.60;99.90;;;;;;6248330;28;20458;-60
2022/12/03 15:41:36;;;;;;;27.60;16.73;;;5.60;99.90;;;;;;6248740;28;20550;-60
2022/12/03 15:44:40;;;;;;;22.83;15.93;;;5.60;99.90;;;;;;6248302;28;20467;-61
2022/12/03 15:47:44;;;;;;;25.77;16.40;;;5.60;99.90;;;;;;6248875;28;20532;-62
2022/12/03 15:50:48;;;;;;;24.13;16.60;;;5.50;99.90;;;;;;6250938;28;20482;-62
2022/12/03 15:53:52;;;;;;;33.23;18.63;;;5.50;99.90;;;;;;6250925;28;20471;-62
2022/12/03 15:56:56;;;;;;;31.57;18.30;;;5.50;99.90;;;;;;6265498;28;20575;-62
2022/12/03 16:00:00;;;;;;;27.30;16.30;;;5.40;99.90;;;;;;6275333;28;20536;-62
2022/12/03 16:03:03;;;;;;;26.13;17.70;;;5.40;99.90;;;;;;6274934;28;20470;-62
2022/12/03 16:06:09;;;;;;;29.23;19.73;;;5.30;99.90;;;;;;6256273;28;20917;-62